sensor_id;sensor_type;location;lat;lon;timestamp;P1;durP1;ratioP1;P2;durP2;ratioP2
22660;SDS011;11497;52.222;21.246;2022-12-18T00:01:53;51.95;;;22.40;;
22660;SDS011;11497;52.222;21.246;2022-12-18T00:04:25;53.55;;;23.73;;
22660;SDS011;11497;52.222;21.246;2022-12-18T00:06:53;59.00;;;23.98;;
22660;SDS011;11497;52.222;21.246;2022-12-18T00:09:21;54.28;;;23.38;;
22660;SDS011;11497;52.222;21.246;2022-12-18T00:11:50;50.40;;;22.02;;
22660;SDS011;11497;52.222;21.246;2022-12-18T00:14:18;58.80;;;24.33;;
22660;SDS011;11497;52.222;21.246;2022-12-18T00:16:46;54.20;;;23.08;;
22660;SDS011;11497;52.222;21.246;2022-12-18T00:19:14;52.88;;;22.85;;
22660;SDS011;11497;52.222;21.246;2022-12-18T00:21:42;56.63;;;23.77;;
22660;SDS011;11497;52.222;21.246;2022-12-18T00:24:11;58.10;;;24.35;;
22660;SDS011;11497;52.222;21.246;2022-12-18T00:26:39;54.05;;;23.00;;
22660;SDS011;11497;52.222;21.246;2022-12-18T00:29:10;63.53;;;25.27;;
22660;SDS011;11497;52.222;21.246;2022-12-18T00:31:42;55.28;;;24.98;;
22660;SDS011;11497;52.222;21.246;2022-12-18T00:34:11;51.67;;;24.08;;
22660;SDS011;11497;52.222;21.246;2022-12-18T00:36:40;60.65;;;25.35;;
22660;SDS011;11497;52.222;21.246;2022-12-18T00:39:10;63.90;;;26.63;;
22660;SDS011;11497;52.222;21.246;2022-12-18T00:41:38;57.92;;;24.20;;
22660;SDS011;11497;52.222;21.246;2022-12-18T00:44:25;53.90;;;24.05;;
22660;SDS011;11497;52.222;21.246;2022-12-18T00:46:53;57.20;;;23.80;;
22660;SDS011;11497;52.222;21.246;2022-12-18T00:49:21;54.58;;;23.95;;
22660;SDS011;11497;52.222;21.246;2022-12-18T00:51:49;54.60;;;24.05;;
22660;SDS011;11497;52.222;21.246;2022-12-18T00:54:17;54.65;;;24.38;;
22660;SDS011;11497;52.222;21.246;2022-12-18T00:56:45;53.40;;;23.95;;
22660;SDS011;11497;52.222;21.246;2022-12-18T00:59:17;53.75;;;24.77;;
22660;SDS011;11497;52.222;21.246;2022-12-18T01:01:45;57.13;;;24.63;;
22660;SDS011;11497;52.222;21.246;2022-12-18T01:04:14;56.05;;;24.00;;
22660;SDS011;11497;52.222;21.246;2022-12-18T01:06:44;54.92;;;24.85;;
22660;SDS011;11497;52.222;21.246;2022-12-18T01:09:12;58.63;;;23.55;;
22660;SDS011;11497;52.222;21.246;2022-12-18T01:11:40;50.47;;;23.27;;
22660;SDS011;11497;52.222;21.246;2022-12-18T01:14:10;47.83;;;22.00;;
22660;SDS011;11497;52.222;21.246;2022-12-18T01:16:38;44.30;;;21.98;;
22660;SDS011;11497;52.222;21.246;2022-12-18T01:19:06;48.90;;;21.45;;
22660;SDS011;11497;52.222;21.246;2022-12-18T01:21:34;45.30;;;19.83;;
22660;SDS011;11497;52.222;21.246;2022-12-18T01:24:03;48.83;;;21.10;;
22660;SDS011;11497;52.222;21.246;2022-12-18T01:26:32;45.35;;;19.88;;
22660;SDS011;11497;52.222;21.246;2022-12-18T01:29:00;44.97;;;19.50;;
22660;SDS011;11497;52.222;21.246;2022-12-18T01:31:29;38.55;;;18.83;;
22660;SDS011;11497;52.222;21.246;2022-12-18T01:34:01;45.03;;;19.80;;
22660;SDS011;11497;52.222;21.246;2022-12-18T01:36:34;42.83;;;19.20;;
22660;SDS011;11497;52.222;21.246;2022-12-18T01:39:09;44.63;;;19.80;;
22660;SDS011;11497;52.222;21.246;2022-12-18T01:41:41;46.80;;;19.63;;
22660;SDS011;11497;52.222;21.246;2022-12-18T01:47:36;42.65;;;18.90;;
22660;SDS011;11497;52.222;21.246;2022-12-18T01:53:06;38.72;;;17.85;;
22660;SDS011;11497;52.222;21.246;2022-12-18T01:55:44;43.10;;;18.73;;
22660;SDS011;11497;52.222;21.246;2022-12-18T01:58:19;36.88;;;16.65;;
22660;SDS011;11497;52.222;21.246;2022-12-18T02:00:54;39.08;;;18.52;;
22660;SDS011;11497;52.222;21.246;2022-12-18T02:03:23;43.20;;;18.65;;
22660;SDS011;11497;52.222;21.246;2022-12-18T02:06:09;39.13;;;17.33;;
22660;SDS011;11497;52.222;21.246;2022-12-18T02:11:31;41.65;;;17.77;;
22660;SDS011;11497;52.222;21.246;2022-12-18T02:16:48;41.42;;;18.10;;
22660;SDS011;11497;52.222;21.246;2022-12-18T02:22:26;37.60;;;17.23;;
22660;SDS011;11497;52.222;21.246;2022-12-18T02:27:53;33.70;;;16.00;;
22660;SDS011;11497;52.222;21.246;2022-12-18T02:30:24;37.50;;;16.35;;
22660;SDS011;11497;52.222;21.246;2022-12-18T02:32:57;38.08;;;16.98;;
22660;SDS011;11497;52.222;21.246;2022-12-18T02:35:29;41.78;;;18.45;;
22660;SDS011;11497;52.222;21.246;2022-12-18T02:38:00;39.78;;;18.23;;
22660;SDS011;11497;52.222;21.246;2022-12-18T02:40:33;40.40;;;17.40;;
22660;SDS011;11497;52.222;21.246;2022-12-18T02:43:10;36.25;;;17.38;;
22660;SDS011;11497;52.222;21.246;2022-12-18T02:45:50;39.35;;;17.42;;
22660;SDS011;11497;52.222;21.246;2022-12-18T02:48:29;36.33;;;17.00;;
22660;SDS011;11497;52.222;21.246;2022-12-18T02:51:02;41.17;;;18.90;;
22660;SDS011;11497;52.222;21.246;2022-12-18T02:56:51;42.22;;;20.67;;
22660;SDS011;11497;52.222;21.246;2022-12-18T02:59:44;43.60;;;19.75;;
22660;SDS011;11497;52.222;21.246;2022-12-18T03:02:45;42.35;;;18.38;;
22660;SDS011;11497;52.222;21.246;2022-12-18T03:05:26;42.47;;;18.20;;
22660;SDS011;11497;52.222;21.246;2022-12-18T03:08:27;43.25;;;18.63;;
22660;SDS011;11497;52.222;21.246;2022-12-18T03:11:01;42.35;;;19.20;;
22660;SDS011;11497;52.222;21.246;2022-12-18T03:13:51;46.42;;;19.23;;
22660;SDS011;11497;52.222;21.246;2022-12-18T03:16:26;38.65;;;18.52;;
22660;SDS011;11497;52.222;21.246;2022-12-18T03:18:58;39.95;;;18.67;;
22660;SDS011;11497;52.222;21.246;2022-12-18T03:21:33;42.17;;;20.40;;
22660;SDS011;11497;52.222;21.246;2022-12-18T03:24:10;43.38;;;18.77;;
22660;SDS011;11497;52.222;21.246;2022-12-18T03:26:40;41.88;;;19.27;;
22660;SDS011;11497;52.222;21.246;2022-12-18T03:29:15;35.33;;;17.05;;
22660;SDS011;11497;52.222;21.246;2022-12-18T03:32:00;40.00;;;17.48;;
22660;SDS011;11497;52.222;21.246;2022-12-18T03:34:32;34.00;;;15.07;;
22660;SDS011;11497;52.222;21.246;2022-12-18T03:37:06;35.95;;;15.55;;
22660;SDS011;11497;52.222;21.246;2022-12-18T03:39:36;33.20;;;15.32;;
22660;SDS011;11497;52.222;21.246;2022-12-18T03:42:10;35.60;;;16.20;;
22660;SDS011;11497;52.222;21.246;2022-12-18T03:56:02;35.08;;;15.80;;
22660;SDS011;11497;52.222;21.246;2022-12-18T03:58:37;35.95;;;16.20;;
22660;SDS011;11497;52.222;21.246;2022-12-18T04:01:20;34.38;;;16.73;;
22660;SDS011;11497;52.222;21.246;2022-12-18T04:03:54;35.58;;;17.20;;
22660;SDS011;11497;52.222;21.246;2022-12-18T04:06:23;36.15;;;17.60;;
22660;SDS011;11497;52.222;21.246;2022-12-18T04:08:52;37.40;;;17.35;;
22660;SDS011;11497;52.222;21.246;2022-12-18T04:11:23;34.08;;;15.93;;
22660;SDS011;11497;52.222;21.246;2022-12-18T04:13:56;32.85;;;15.20;;
22660;SDS011;11497;52.222;21.246;2022-12-18T04:16:27;31.45;;;15.13;;
22660;SDS011;11497;52.222;21.246;2022-12-18T04:19:00;28.20;;;13.60;;
22660;SDS011;11497;52.222;21.246;2022-12-18T04:21:32;27.95;;;14.35;;
22660;SDS011;11497;52.222;21.246;2022-12-18T04:24:00;29.67;;;14.15;;
22660;SDS011;11497;52.222;21.246;2022-12-18T04:26:29;31.98;;;16.40;;
22660;SDS011;11497;52.222;21.246;2022-12-18T04:29:11;31.90;;;15.32;;
22660;SDS011;11497;52.222;21.246;2022-12-18T04:31:39;31.38;;;15.50;;
22660;SDS011;11497;52.222;21.246;2022-12-18T04:34:08;27.83;;;13.73;;
22660;SDS011;11497;52.222;21.246;2022-12-18T04:36:43;31.40;;;14.68;;
22660;SDS011;11497;52.222;21.246;2022-12-18T04:39:12;34.10;;;16.10;;
22660;SDS011;11497;52.222;21.246;2022-12-18T04:41:40;27.95;;;13.65;;
22660;SDS011;11497;52.222;21.246;2022-12-18T04:44:09;32.67;;;15.35;;
22660;SDS011;11497;52.222;21.246;2022-12-18T04:46:36;32.03;;;14.93;;
22660;SDS011;11497;52.222;21.246;2022-12-18T04:49:05;27.75;;;13.65;;
22660;SDS011;11497;52.222;21.246;2022-12-18T04:51:32;28.92;;;13.73;;
22660;SDS011;11497;52.222;21.246;2022-12-18T04:54:00;25.98;;;13.10;;
22660;SDS011;11497;52.222;21.246;2022-12-18T04:56:30;32.90;;;15.10;;
22660;SDS011;11497;52.222;21.246;2022-12-18T04:58:58;27.40;;;13.25;;
22660;SDS011;11497;52.222;21.246;2022-12-18T05:01:26;31.40;;;13.50;;
22660;SDS011;11497;52.222;21.246;2022-12-18T05:04:01;29.35;;;14.63;;
22660;SDS011;11497;52.222;21.246;2022-12-18T05:06:29;29.92;;;13.95;;
22660;SDS011;11497;52.222;21.246;2022-12-18T05:08:57;31.95;;;13.38;;
22660;SDS011;11497;52.222;21.246;2022-12-18T05:11:25;33.55;;;14.52;;
22660;SDS011;11497;52.222;21.246;2022-12-18T05:13:53;28.33;;;14.27;;
22660;SDS011;11497;52.222;21.246;2022-12-18T05:16:20;29.75;;;14.18;;
22660;SDS011;11497;52.222;21.246;2022-12-18T05:18:49;30.27;;;14.32;;
22660;SDS011;11497;52.222;21.246;2022-12-18T05:21:16;29.77;;;14.48;;
22660;SDS011;11497;52.222;21.246;2022-12-18T05:23:44;27.98;;;14.10;;
22660;SDS011;11497;52.222;21.246;2022-12-18T05:26:15;29.65;;;14.00;;
22660;SDS011;11497;52.222;21.246;2022-12-18T05:28:44;29.98;;;14.25;;
22660;SDS011;11497;52.222;21.246;2022-12-18T05:31:13;33.33;;;15.48;;
22660;SDS011;11497;52.222;21.246;2022-12-18T05:33:41;29.55;;;14.80;;
22660;SDS011;11497;52.222;21.246;2022-12-18T05:36:10;28.35;;;14.70;;
22660;SDS011;11497;52.222;21.246;2022-12-18T05:38:38;29.80;;;14.27;;
22660;SDS011;11497;52.222;21.246;2022-12-18T05:41:07;30.33;;;13.40;;
22660;SDS011;11497;52.222;21.246;2022-12-18T05:43:36;32.05;;;13.85;;
22660;SDS011;11497;52.222;21.246;2022-12-18T05:46:06;27.73;;;13.88;;
22660;SDS011;11497;52.222;21.246;2022-12-18T05:48:37;30.83;;;14.43;;
22660;SDS011;11497;52.222;21.246;2022-12-18T05:51:06;37.50;;;15.65;;
22660;SDS011;11497;52.222;21.246;2022-12-18T05:53:39;30.70;;;13.70;;
22660;SDS011;11497;52.222;21.246;2022-12-18T05:56:10;36.05;;;15.77;;
22660;SDS011;11497;52.222;21.246;2022-12-18T05:58:41;30.77;;;14.70;;
22660;SDS011;11497;52.222;21.246;2022-12-18T06:01:10;27.45;;;14.25;;
22660;SDS011;11497;52.222;21.246;2022-12-18T06:03:44;27.38;;;14.23;;
22660;SDS011;11497;52.222;21.246;2022-12-18T06:06:20;28.70;;;14.27;;
22660;SDS011;11497;52.222;21.246;2022-12-18T06:08:50;30.90;;;14.02;;
22660;SDS011;11497;52.222;21.246;2022-12-18T06:11:19;29.30;;;14.93;;
22660;SDS011;11497;52.222;21.246;2022-12-18T06:13:50;28.00;;;13.13;;
22660;SDS011;11497;52.222;21.246;2022-12-18T06:16:25;28.80;;;14.45;;
22660;SDS011;11497;52.222;21.246;2022-12-18T06:19:00;30.63;;;13.50;;
22660;SDS011;11497;52.222;21.246;2022-12-18T06:21:30;31.05;;;14.38;;
22660;SDS011;11497;52.222;21.246;2022-12-18T06:23:59;30.23;;;14.80;;
22660;SDS011;11497;52.222;21.246;2022-12-18T06:26:27;29.48;;;13.50;;
22660;SDS011;11497;52.222;21.246;2022-12-18T06:28:55;34.42;;;14.18;;
22660;SDS011;11497;52.222;21.246;2022-12-18T06:31:24;26.80;;;13.20;;
22660;SDS011;11497;52.222;21.246;2022-12-18T06:33:53;27.48;;;13.65;;
22660;SDS011;11497;52.222;21.246;2022-12-18T06:36:20;28.30;;;13.27;;
22660;SDS011;11497;52.222;21.246;2022-12-18T06:38:49;28.95;;;13.43;;
22660;SDS011;11497;52.222;21.246;2022-12-18T06:41:17;27.55;;;12.80;;
22660;SDS011;11497;52.222;21.246;2022-12-18T06:43:47;27.30;;;12.82;;
22660;SDS011;11497;52.222;21.246;2022-12-18T06:46:15;29.83;;;13.50;;
22660;SDS011;11497;52.222;21.246;2022-12-18T06:48:46;27.67;;;13.18;;
22660;SDS011;11497;52.222;21.246;2022-12-18T06:51:16;29.77;;;13.77;;
22660;SDS011;11497;52.222;21.246;2022-12-18T06:53:48;30.70;;;14.07;;
22660;SDS011;11497;52.222;21.246;2022-12-18T06:56:16;25.30;;;13.10;;
22660;SDS011;11497;52.222;21.246;2022-12-18T06:58:44;29.98;;;13.95;;
22660;SDS011;11497;52.222;21.246;2022-12-18T07:01:12;31.80;;;15.35;;
22660;SDS011;11497;52.222;21.246;2022-12-18T07:03:41;30.30;;;14.65;;
22660;SDS011;11497;52.222;21.246;2022-12-18T07:06:14;30.75;;;13.75;;
22660;SDS011;11497;52.222;21.246;2022-12-18T07:08:45;31.88;;;14.88;;
22660;SDS011;11497;52.222;21.246;2022-12-18T07:11:13;29.92;;;14.23;;
22660;SDS011;11497;52.222;21.246;2022-12-18T07:13:42;31.40;;;14.55;;
22660;SDS011;11497;52.222;21.246;2022-12-18T07:16:13;31.73;;;14.18;;
22660;SDS011;11497;52.222;21.246;2022-12-18T07:18:50;35.05;;;14.57;;
22660;SDS011;11497;52.222;21.246;2022-12-18T07:21:21;32.42;;;15.07;;
22660;SDS011;11497;52.222;21.246;2022-12-18T07:23:50;37.85;;;16.63;;
22660;SDS011;11497;52.222;21.246;2022-12-18T07:26:18;37.00;;;16.13;;
22660;SDS011;11497;52.222;21.246;2022-12-18T07:28:47;37.25;;;15.95;;
22660;SDS011;11497;52.222;21.246;2022-12-18T07:31:19;39.85;;;17.63;;
22660;SDS011;11497;52.222;21.246;2022-12-18T07:33:49;41.35;;;18.05;;
22660;SDS011;11497;52.222;21.246;2022-12-18T07:36:18;39.58;;;17.80;;
22660;SDS011;11497;52.222;21.246;2022-12-18T07:38:49;45.58;;;18.20;;
22660;SDS011;11497;52.222;21.246;2022-12-18T07:41:19;42.65;;;18.38;;
22660;SDS011;11497;52.222;21.246;2022-12-18T07:43:47;45.38;;;19.00;;
22660;SDS011;11497;52.222;21.246;2022-12-18T07:46:15;43.70;;;19.27;;
22660;SDS011;11497;52.222;21.246;2022-12-18T07:48:44;42.88;;;18.77;;
22660;SDS011;11497;52.222;21.246;2022-12-18T07:51:16;43.20;;;17.77;;
22660;SDS011;11497;52.222;21.246;2022-12-18T07:53:45;48.25;;;18.85;;
22660;SDS011;11497;52.222;21.246;2022-12-18T07:56:18;35.83;;;15.15;;
22660;SDS011;11497;52.222;21.246;2022-12-18T07:58:57;47.95;;;18.95;;
22660;SDS011;11497;52.222;21.246;2022-12-18T08:01:26;43.58;;;18.55;;
22660;SDS011;11497;52.222;21.246;2022-12-18T08:03:54;48.67;;;20.02;;
22660;SDS011;11497;52.222;21.246;2022-12-18T08:06:23;46.08;;;20.48;;
22660;SDS011;11497;52.222;21.246;2022-12-18T08:08:52;48.47;;;20.73;;
22660;SDS011;11497;52.222;21.246;2022-12-18T08:11:21;58.63;;;24.48;;
22660;SDS011;11497;52.222;21.246;2022-12-18T08:13:52;51.33;;;22.70;;
22660;SDS011;11497;52.222;21.246;2022-12-18T08:16:20;52.22;;;20.65;;
22660;SDS011;11497;52.222;21.246;2022-12-18T08:18:50;47.35;;;20.38;;
22660;SDS011;11497;52.222;21.246;2022-12-18T08:21:20;44.97;;;19.98;;
22660;SDS011;11497;52.222;21.246;2022-12-18T08:23:54;50.33;;;20.75;;
22660;SDS011;11497;52.222;21.246;2022-12-18T08:26:25;47.65;;;20.58;;
22660;SDS011;11497;52.222;21.246;2022-12-18T08:28:55;52.97;;;21.67;;
22660;SDS011;11497;52.222;21.246;2022-12-18T08:31:25;53.67;;;22.83;;
22660;SDS011;11497;52.222;21.246;2022-12-18T08:33:55;57.08;;;21.75;;
22660;SDS011;11497;52.222;21.246;2022-12-18T08:36:23;49.28;;;21.25;;
22660;SDS011;11497;52.222;21.246;2022-12-18T08:38:53;51.08;;;21.65;;
22660;SDS011;11497;52.222;21.246;2022-12-18T08:41:21;46.22;;;20.13;;
22660;SDS011;11497;52.222;21.246;2022-12-18T08:43:49;53.20;;;21.67;;
22660;SDS011;11497;52.222;21.246;2022-12-18T08:46:37;58.85;;;22.70;;
22660;SDS011;11497;52.222;21.246;2022-12-18T08:49:07;55.75;;;21.73;;
22660;SDS011;11497;52.222;21.246;2022-12-18T08:51:35;52.38;;;20.95;;
22660;SDS011;11497;52.222;21.246;2022-12-18T08:54:04;53.60;;;21.67;;
22660;SDS011;11497;52.222;21.246;2022-12-18T08:56:32;65.28;;;25.50;;
22660;SDS011;11497;52.222;21.246;2022-12-18T08:59:01;68.70;;;24.67;;
22660;SDS011;11497;52.222;21.246;2022-12-18T09:01:29;62.67;;;24.55;;
22660;SDS011;11497;52.222;21.246;2022-12-18T09:03:58;67.65;;;25.50;;
22660;SDS011;11497;52.222;21.246;2022-12-18T09:06:25;71.22;;;25.45;;
22660;SDS011;11497;52.222;21.246;2022-12-18T09:08:54;64.55;;;25.60;;
22660;SDS011;11497;52.222;21.246;2022-12-18T09:11:22;72.07;;;26.90;;
22660;SDS011;11497;52.222;21.246;2022-12-18T09:13:54;72.65;;;27.05;;
22660;SDS011;11497;52.222;21.246;2022-12-18T09:16:23;70.32;;;26.65;;
22660;SDS011;11497;52.222;21.246;2022-12-18T09:18:58;68.78;;;27.25;;
22660;SDS011;11497;52.222;21.246;2022-12-18T09:21:28;77.70;;;27.05;;
22660;SDS011;11497;52.222;21.246;2022-12-18T09:24:03;75.07;;;29.30;;
22660;SDS011;11497;52.222;21.246;2022-12-18T09:26:34;79.95;;;29.27;;
22660;SDS011;11497;52.222;21.246;2022-12-18T09:29:03;74.13;;;29.88;;
22660;SDS011;11497;52.222;21.246;2022-12-18T09:31:33;76.70;;;28.95;;
22660;SDS011;11497;52.222;21.246;2022-12-18T09:34:02;78.03;;;29.20;;
22660;SDS011;11497;52.222;21.246;2022-12-18T09:36:30;71.43;;;29.33;;
22660;SDS011;11497;52.222;21.246;2022-12-18T09:38:58;74.07;;;28.27;;
22660;SDS011;11497;52.222;21.246;2022-12-18T09:41:45;69.70;;;27.58;;
22660;SDS011;11497;52.222;21.246;2022-12-18T09:44:24;59.85;;;26.05;;
22660;SDS011;11497;52.222;21.246;2022-12-18T09:47:11;69.28;;;27.65;;
22660;SDS011;11497;52.222;21.246;2022-12-18T09:49:45;74.25;;;28.48;;
22660;SDS011;11497;52.222;21.246;2022-12-18T09:52:23;76.38;;;30.08;;
22660;SDS011;11497;52.222;21.246;2022-12-18T09:55:02;75.72;;;30.08;;
22660;SDS011;11497;52.222;21.246;2022-12-18T09:57:51;72.25;;;29.60;;
22660;SDS011;11497;52.222;21.246;2022-12-18T10:00:34;73.38;;;28.88;;
22660;SDS011;11497;52.222;21.246;2022-12-18T10:03:10;69.10;;;26.63;;
22660;SDS011;11497;52.222;21.246;2022-12-18T10:06:26;74.97;;;27.50;;
22660;SDS011;11497;52.222;21.246;2022-12-18T10:08:51;69.43;;;27.98;;
22660;SDS011;11497;52.222;21.246;2022-12-18T10:14:20;59.22;;;27.40;;
22660;SDS011;11497;52.222;21.246;2022-12-18T10:20:09;65.70;;;26.85;;
22660;SDS011;11497;52.222;21.246;2022-12-18T10:25:38;69.43;;;29.58;;
22660;SDS011;11497;52.222;21.246;2022-12-18T10:28:19;66.68;;;27.90;;
22660;SDS011;11497;52.222;21.246;2022-12-18T10:30:48;72.85;;;26.70;;
22660;SDS011;11497;52.222;21.246;2022-12-18T10:33:18;61.80;;;26.52;;
22660;SDS011;11497;52.222;21.246;2022-12-18T10:35:50;62.55;;;25.35;;
22660;SDS011;11497;52.222;21.246;2022-12-18T10:38:24;64.05;;;25.38;;
22660;SDS011;11497;52.222;21.246;2022-12-18T10:40:57;58.35;;;24.20;;
22660;SDS011;11497;52.222;21.246;2022-12-18T10:43:47;57.78;;;23.95;;
22660;SDS011;11497;52.222;21.246;2022-12-18T10:46:35;58.58;;;24.90;;
22660;SDS011;11497;52.222;21.246;2022-12-18T10:49:03;57.25;;;24.63;;
22660;SDS011;11497;52.222;21.246;2022-12-18T10:51:34;57.20;;;25.52;;
22660;SDS011;11497;52.222;21.246;2022-12-18T10:54:05;60.70;;;25.87;;
22660;SDS011;11497;52.222;21.246;2022-12-18T10:56:52;58.33;;;24.80;;
22660;SDS011;11497;52.222;21.246;2022-12-18T11:00:18;56.08;;;24.60;;
22660;SDS011;11497;52.222;21.246;2022-12-18T11:02:47;57.30;;;24.35;;
22660;SDS011;11497;52.222;21.246;2022-12-18T11:10:35;56.45;;;24.90;;
22660;SDS011;11497;52.222;21.246;2022-12-18T11:13:17;66.85;;;26.45;;
22660;SDS011;11497;52.222;21.246;2022-12-18T11:15:48;60.22;;;25.90;;
22660;SDS011;11497;52.222;21.246;2022-12-18T11:18:22;61.13;;;25.88;;
22660;SDS011;11497;52.222;21.246;2022-12-18T11:20:59;58.92;;;25.50;;
22660;SDS011;11497;52.222;21.246;2022-12-18T11:23:36;74.07;;;28.65;;
22660;SDS011;11497;52.222;21.246;2022-12-18T11:26:13;65.72;;;29.08;;
22660;SDS011;11497;52.222;21.246;2022-12-18T11:31:34;58.75;;;26.92;;
22660;SDS011;11497;52.222;21.246;2022-12-18T11:34:04;66.55;;;27.98;;
22660;SDS011;11497;52.222;21.246;2022-12-18T11:37:00;71.03;;;30.17;;
22660;SDS011;11497;52.222;21.246;2022-12-18T11:41:59;67.03;;;28.58;;
22660;SDS011;11497;52.222;21.246;2022-12-18T11:44:41;69.82;;;28.38;;
22660;SDS011;11497;52.222;21.246;2022-12-18T11:50:03;65.60;;;26.75;;
22660;SDS011;11497;52.222;21.246;2022-12-18T11:52:43;69.78;;;29.88;;
22660;SDS011;11497;52.222;21.246;2022-12-18T11:55:12;71.18;;;28.88;;
22660;SDS011;11497;52.222;21.246;2022-12-18T11:57:51;62.72;;;28.60;;
22660;SDS011;11497;52.222;21.246;2022-12-18T12:01:10;65.88;;;27.20;;
22660;SDS011;11497;52.222;21.246;2022-12-18T12:07:18;65.25;;;28.60;;
22660;SDS011;11497;52.222;21.246;2022-12-18T12:12:51;65.13;;;27.70;;
22660;SDS011;11497;52.222;21.246;2022-12-18T12:18:32;64.30;;;27.48;;
22660;SDS011;11497;52.222;21.246;2022-12-18T12:26:38;70.47;;;28.85;;
22660;SDS011;11497;52.222;21.246;2022-12-18T12:40:27;68.88;;;29.27;;
22660;SDS011;11497;52.222;21.246;2022-12-18T12:46:16;69.43;;;28.00;;
22660;SDS011;11497;52.222;21.246;2022-12-18T12:48:50;72.57;;;28.75;;
22660;SDS011;11497;52.222;21.246;2022-12-18T12:51:40;72.55;;;31.00;;
22660;SDS011;11497;52.222;21.246;2022-12-18T12:54:14;78.50;;;31.25;;
22660;SDS011;11497;52.222;21.246;2022-12-18T12:56:50;84.22;;;35.22;;
22660;SDS011;11497;52.222;21.246;2022-12-18T13:02:50;72.25;;;29.35;;
22660;SDS011;11497;52.222;21.246;2022-12-18T13:07:53;77.03;;;31.13;;
22660;SDS011;11497;52.222;21.246;2022-12-18T13:10:36;78.13;;;29.67;;
22660;SDS011;11497;52.222;21.246;2022-12-18T13:13:15;76.88;;;30.92;;
22660;SDS011;11497;52.222;21.246;2022-12-18T13:18:34;76.72;;;28.25;;
22660;SDS011;11497;52.222;21.246;2022-12-18T13:21:13;70.72;;;28.13;;
22660;SDS011;11497;52.222;21.246;2022-12-18T13:24:15;73.40;;;28.60;;
22660;SDS011;11497;52.222;21.246;2022-12-18T13:26:55;70.10;;;29.60;;
22660;SDS011;11497;52.222;21.246;2022-12-18T13:29:42;75.47;;;30.60;;
22660;SDS011;11497;52.222;21.246;2022-12-18T13:32:19;76.43;;;30.90;;
22660;SDS011;11497;52.222;21.246;2022-12-18T13:37:52;74.68;;;30.30;;
22660;SDS011;11497;52.222;21.246;2022-12-18T13:48:33;77.90;;;31.70;;
22660;SDS011;11497;52.222;21.246;2022-12-18T13:51:05;86.60;;;33.30;;
22660;SDS011;11497;52.222;21.246;2022-12-18T13:53:39;73.33;;;29.57;;
22660;SDS011;11497;52.222;21.246;2022-12-18T13:56:17;71.53;;;30.00;;
22660;SDS011;11497;52.222;21.246;2022-12-18T14:07:06;80.30;;;29.20;;
22660;SDS011;11497;52.222;21.246;2022-12-18T14:09:59;69.32;;;28.08;;
22660;SDS011;11497;52.222;21.246;2022-12-18T14:12:49;75.95;;;28.98;;
22660;SDS011;11497;52.222;21.246;2022-12-18T14:15:31;77.10;;;29.63;;
22660;SDS011;11497;52.222;21.246;2022-12-18T14:18:18;73.82;;;28.67;;
22660;SDS011;11497;52.222;21.246;2022-12-18T14:20:54;80.90;;;30.92;;
22660;SDS011;11497;52.222;21.246;2022-12-18T14:23:25;67.47;;;27.52;;
22660;SDS011;11497;52.222;21.246;2022-12-18T14:26:01;75.75;;;28.08;;
22660;SDS011;11497;52.222;21.246;2022-12-18T14:28:45;77.38;;;29.60;;
22660;SDS011;11497;52.222;21.246;2022-12-18T14:31:20;72.97;;;29.08;;
22660;SDS011;11497;52.222;21.246;2022-12-18T14:33:49;79.18;;;31.08;;
22660;SDS011;11497;52.222;21.246;2022-12-18T14:36:19;79.55;;;31.02;;
22660;SDS011;11497;52.222;21.246;2022-12-18T14:38:53;76.25;;;30.75;;
22660;SDS011;11497;52.222;21.246;2022-12-18T14:41:26;75.05;;;31.15;;
22660;SDS011;11497;52.222;21.246;2022-12-18T14:43:56;75.72;;;29.88;;
22660;SDS011;11497;52.222;21.246;2022-12-18T14:49:23;68.40;;;29.35;;
22660;SDS011;11497;52.222;21.246;2022-12-18T14:52:00;76.57;;;27.85;;
22660;SDS011;11497;52.222;21.246;2022-12-18T14:54:30;69.13;;;26.70;;
22660;SDS011;11497;52.222;21.246;2022-12-18T14:59:45;71.22;;;28.00;;
22660;SDS011;11497;52.222;21.246;2022-12-18T15:07:49;73.47;;;29.63;;
22660;SDS011;11497;52.222;21.246;2022-12-18T15:20:39;70.65;;;26.83;;
22660;SDS011;11497;52.222;21.246;2022-12-18T15:23:21;68.38;;;28.73;;
22660;SDS011;11497;52.222;21.246;2022-12-18T15:31:23;64.05;;;26.05;;
22660;SDS011;11497;52.222;21.246;2022-12-18T15:36:23;74.88;;;27.25;;
22660;SDS011;11497;52.222;21.246;2022-12-18T15:38:54;76.45;;;29.05;;
22660;SDS011;11497;52.222;21.246;2022-12-18T15:41:32;64.43;;;26.63;;
22660;SDS011;11497;52.222;21.246;2022-12-18T15:44:03;58.85;;;24.95;;
22660;SDS011;11497;52.222;21.246;2022-12-18T15:46:53;66.53;;;26.92;;
22660;SDS011;11497;52.222;21.246;2022-12-18T15:49:21;65.00;;;28.25;;
22660;SDS011;11497;52.222;21.246;2022-12-18T15:51:53;64.88;;;26.55;;
22660;SDS011;11497;52.222;21.246;2022-12-18T15:54:24;65.85;;;27.48;;
22660;SDS011;11497;52.222;21.246;2022-12-18T15:57:16;66.00;;;26.48;;
22660;SDS011;11497;52.222;21.246;2022-12-18T15:59:50;66.35;;;25.90;;
22660;SDS011;11497;52.222;21.246;2022-12-18T16:02:20;63.63;;;26.42;;
22660;SDS011;11497;52.222;21.246;2022-12-18T16:04:50;70.15;;;27.05;;
22660;SDS011;11497;52.222;21.246;2022-12-18T16:07:18;66.45;;;26.42;;
22660;SDS011;11497;52.222;21.246;2022-12-18T16:09:51;66.53;;;26.17;;
22660;SDS011;11497;52.222;21.246;2022-12-18T16:12:21;70.40;;;28.38;;
22660;SDS011;11497;52.222;21.246;2022-12-18T16:14:51;68.20;;;27.77;;
22660;SDS011;11497;52.222;21.246;2022-12-18T16:17:18;70.75;;;27.80;;
22660;SDS011;11497;52.222;21.246;2022-12-18T16:19:47;70.95;;;27.50;;
22660;SDS011;11497;52.222;21.246;2022-12-18T16:22:21;70.10;;;28.85;;
22660;SDS011;11497;52.222;21.246;2022-12-18T16:24:55;74.03;;;29.42;;
22660;SDS011;11497;52.222;21.246;2022-12-18T16:27:23;72.75;;;29.10;;
22660;SDS011;11497;52.222;21.246;2022-12-18T16:29:52;70.93;;;28.73;;
22660;SDS011;11497;52.222;21.246;2022-12-18T16:32:20;74.53;;;29.55;;
22660;SDS011;11497;52.222;21.246;2022-12-18T16:34:50;65.80;;;28.73;;
22660;SDS011;11497;52.222;21.246;2022-12-18T16:37:18;67.75;;;27.30;;
22660;SDS011;11497;52.222;21.246;2022-12-18T16:39:46;60.53;;;25.60;;
22660;SDS011;11497;52.222;21.246;2022-12-18T16:42:17;69.30;;;26.33;;
22660;SDS011;11497;52.222;21.246;2022-12-18T16:44:47;64.10;;;26.87;;
22660;SDS011;11497;52.222;21.246;2022-12-18T16:47:16;64.45;;;25.27;;
22660;SDS011;11497;52.222;21.246;2022-12-18T16:49:44;67.40;;;25.70;;
22660;SDS011;11497;52.222;21.246;2022-12-18T16:52:12;63.42;;;24.33;;
22660;SDS011;11497;52.222;21.246;2022-12-18T16:54:40;63.15;;;25.20;;
22660;SDS011;11497;52.222;21.246;2022-12-18T16:57:12;67.18;;;27.08;;
22660;SDS011;11497;52.222;21.246;2022-12-18T16:59:41;63.65;;;25.13;;
22660;SDS011;11497;52.222;21.246;2022-12-18T17:02:13;59.55;;;26.00;;
22660;SDS011;11497;52.222;21.246;2022-12-18T17:04:52;60.65;;;25.42;;